Nearby METAR Reports

 

KBML - Berlin, NH
Mise à jour: Thu, 20-Sep-2018 5:52pm EDT
partiellement nuageux
partiellement nuageux
 Wind from SSO
Vent: SSO 3 mph , 6 km/h
Température: 63°F , 17°C
Point de rosée: 54°F , 12°C
Humidité: 73%
Baromètre: 30.24 inHg , 1024 hPa
Clouds: partiellement nuageux
Visibility: 10 miles , 16 km
Cloud details: partiellement nuageux 3200 ft
2018/09/20 21:52 KBML 202152Z AUTO 21003KT 10SM SCT032 17/12 A3024 RMK AO2 SLP242 T01670122
KCON - Concord, NH
Mise à jour: Thu, 20-Sep-2018 5:51pm EDT
nuageux
nuageux
 Wind from SE
Vent: SE 6 mph , 9 km/h
Température: 61°F , 16°C
Point de rosée: 55°F , 13°C
Humidité: 83%
Baromètre: 30.26 inHg , 1024.7 hPa
Clouds: nuageux
Visibility: 10 miles , 16 km
Cloud details: Few Clouds 2500 ft
nuageux 5000 ft
2018/09/20 21:51 KCON 202151Z AUTO 13005KT 10SM FEW025 BKN050 16/13 A3026 RMK AO2 SLP248 T01610128
KAFN - Lebanon, NH
Mise à jour: Thu, 20-Sep-2018 5:52pm EDT
couvert
couvert
 Wind from calm
Vent: calme
Température: 61°F , 16°C
Point de rosée: 55°F , 13°C
Humidité: 83%
Baromètre: 30.26 inHg , 1024.7 hPa
Clouds: couvert
Visibility: 10 miles , 16 km
Cloud details: couvert 3800 ft
2018/09/20 21:52 KAFN 202152Z AUTO 00000KT 10SM OVC038 16/13 A3026 RMK AO2 SLP250 T01610133
 
KMHT - Manchester, NH
Mise à jour: Thu, 20-Sep-2018 5:53pm EDT
nuageux
nuageux
 Wind from SE
Vent: SE 7 mph , 11 km/h
Température: 63°F , 17°C
Point de rosée: 54°F , 12°C
Humidité: 73%
Baromètre: 30.25 inHg , 1024.4 hPa
Clouds: nuageux
Visibility: 10 miles , 16 km
Cloud details: nuageux 2500 ft
nuageux 3600 ft
2018/09/20 21:53 KMHT 202153Z 14006KT 10SM BKN025 BKN036 17/12 A3025 RMK AO2 SLP256 T01720122
KMWN - Mount Washington
Mise à jour: Thu, 20-Sep-2018 5:52pm EDT

 Wind from NNO
Vent: NNO 9 mph , 15 km/h
Visibility: 60 miles , 96 km
2018/09/20 21:52 KMWN 202152Z 33008KT 60SM BKN/// SCT/// FEW030 BKN120 OVC180 05/00 RMK TPS LWR BKN045 TPS LWR SCT055 BINOVC
K25B - Portsmouth Harbor
Mise à jour: Wed, 31-Dec-1969 7:00pm EST
NOT Current
unable to load K25B data RC=404 Not Found
unable to load K25B data RC=404 Not Found
 
 
KDDH - Bennington, VT
Mise à jour: Thu, 20-Sep-2018 5:54pm EDT
nuageux
nuageux
 Wind from calm
Vent: calme
Température: 66°F , 19°C
Point de rosée: 57°F , 14°C
Humidité: 73%
Baromètre: 30.22 inHg , 1023.4 hPa
Clouds: nuageux
Visibility: 10 miles , 16 km
Cloud details: nuageux 4400 ft
2018/09/20 21:54 KDDH 202154Z AUTO 00000KT 10SM BKN044 19/14 A3022 RMK AO2 SLP232 T01940144
K9B2 - Newport, VT
Mise à jour: Wed, 31-Dec-1969 7:00pm EST
NOT Current
unable to load K9B2 data RC=404 Not Found
unable to load K9B2 data RC=404 Not Found
 
K1V4 - St Johnsbury, VT
Mise à jour: Thu, 20-Sep-2018 5:54pm EDT

 
Température: 63°F , 17°C
Point de rosée: 54°F , 12°C
Humidité: 73%
Baromètre: 30.22 inHg , 1023.4 hPa
2018/09/20 21:54 K1V4 202154Z AUTO 17/12 A3022 RMK AO1 SLP230 T01670122
 
KBGR - Bangor, ME
Mise à jour: Thu, 20-Sep-2018 5:53pm EDT
nuageux
nuageux
 Wind from SSO
Vent: SSO 5 mph , 7 km/h
Température: 61°F , 16°C
Point de rosée: 50°F , 10°C
Humidité: 68%
Baromètre: 30.26 inHg , 1024.7 hPa
Clouds: nuageux
Visibility: 10 miles , 16 km
Cloud details: partiellement nuageux 6000 ft
nuageux 12000 ft
2018/09/20 21:53 KBGR 202153Z 20004KT 10SM SCT060 BKN120 16/10 A3026 RMK AO2 SLP247 T01560100
KBHB - Bar Harbor, ME
Mise à jour: Thu, 20-Sep-2018 5:56pm EDT
clair
clair
 Wind from SSO
Vent: SSO 7 mph , 11 km/h
Température: 57°F , 14°C
Point de rosée: 50°F , 10°C
Humidité: 77%
Baromètre: 30.27 inHg , 1025.1 hPa
Clouds: clair
Visibility: 10 miles , 16 km
2018/09/20 21:56 KBHB 202156Z AUTO 21006KT 10SM CLR 14/10 A3027 RMK AO2 SLP256 T01390100
74389 - Gray, ME
Mise à jour: Wed, 31-Dec-1969 7:00pm EST
NOT Current
74389 not loaded
74389 not loaded
 
 
KGNR - Greenville,ME
Mise à jour: Thu, 20-Sep-2018 5:56pm EDT

 Wind from SSE
Vent: SSE 3 mph , 6 km/h
Température: 54°F , 12°C
Point de rosée: 50°F , 10°C
Humidité: 88%
Baromètre: 30.23 inHg , 1023.7 hPa
2018/09/20 21:56 KGNR 202156Z AUTO 15003KT 12/10 A3023 RMK AO1 SLP245 T01220100
KOLD - Old Town, ME
Mise à jour: Wed, 31-Dec-1969 7:00pm EST
NOT Current
unable to load KOLD data RC=404 Not Found
unable to load KOLD data RC=404 Not Found
 
KRUM - Rumford, ME
Mise à jour: Wed, 31-Dec-1969 7:00pm EST
NOT Current
unable to load KRUM data RC=404 Not Found
unable to load KRUM data RC=404 Not Found
 








5078806


Contact Us

© 2018, johnsnhweather | Weather-Display (10.37S-(b80)) | Valable XHTML 1.0 | Valable CSS

This website is neither affiliated with nor endorsed by the National Weather Service, the town of Pittsburg or any other government agency.
The weather data contained herein is offered without any warranties expressed or implied, and is meant to supplement NOAA weather forecasts and information. Never base important decisions that could result in harm to people or property on this weather information.